createdAt,value
2017-09-20T00:01:35.017Z,44.23
2017-09-20T00:04:01.987Z,45.63
2017-09-20T00:06:34.874Z,48.23
2017-09-20T00:09:03.537Z,38.27
2017-09-20T00:11:29.465Z,42.93
2017-09-20T00:13:55.398Z,37.27
2017-09-20T00:16:27.061Z,37.40
2017-09-20T00:18:54.013Z,41.53
2017-09-20T00:21:21.981Z,43.97
2017-09-20T00:23:53.038Z,45.47
2017-09-20T00:26:20.007Z,46.27
2017-09-20T00:28:47.749Z,43.67
2017-09-20T00:31:13.678Z,48.47
2017-09-20T00:33:43.842Z,54.53
2017-09-20T00:36:10.549Z,50.43
2017-09-20T00:38:37.502Z,49.13
2017-09-20T00:41:03.460Z,49.23
2017-09-20T00:43:31.423Z,47.40
2017-09-20T00:46:05.442Z,47.47
2017-09-20T00:48:31.439Z,49.83
2017-09-20T00:50:57.505Z,56.40
2017-09-20T00:53:23.502Z,43.90
2017-09-20T00:55:50.450Z,49.43
2017-09-20T00:58:21.800Z,50.90
2017-09-20T01:00:48.738Z,59.87
2017-09-20T01:03:15.702Z,44.57
2017-09-20T01:05:45.242Z,50.63
2017-09-20T01:08:12.253Z,52.80
2017-09-20T01:10:38.360Z,50.03
2017-09-20T02:25:22.408Z,64.70
2017-09-20T02:27:48.386Z,69.57
2017-09-20T02:30:15.421Z,71.07
2017-09-20T02:32:41.467Z,73.83
2017-09-20T02:35:08.186Z,79.87
2017-09-20T02:37:34.229Z,75.57
2017-09-20T02:40:00.960Z,67.43
2017-09-20T02:42:31.698Z,73.97
2017-09-20T02:44:59.680Z,68.33
2017-09-20T02:47:26.442Z,84.70
2017-09-20T02:49:53.166Z,81.87
2017-09-20T02:52:19.102Z,84.20
2017-09-20T02:54:46.187Z,83.30
2017-09-20T02:57:12.181Z,86.57
2017-09-20T02:59:38.211Z,81.90
2017-09-20T03:02:04.890Z,88.57
2017-09-20T03:04:30.810Z,74.93
2017-09-20T03:06:57.822Z,91.97
2017-09-20T03:09:25.818Z,83.50
2017-09-20T03:12:04.634Z,75.60
2017-09-20T03:14:42.260Z,79.87
2017-09-20T03:17:08.245Z,80.00
2017-09-20T03:19:34.267Z,79.63
2017-09-20T03:22:00.310Z,94.67
2017-09-20T03:24:28.078Z,76.40
2017-09-20T03:27:01.086Z,88.80
2017-09-20T03:29:28.821Z,81.57
2017-09-20T03:31:59.353Z,79.70
2017-09-20T03:34:25.401Z,81.20
2017-09-20T03:36:52.118Z,84.33
2017-09-20T03:39:18.053Z,83.70
2017-09-20T03:41:43.989Z,85.53
2017-09-20T03:44:18.017Z,90.13
2017-09-20T03:46:44.739Z,96.63
2017-09-20T03:49:12.749Z,90.63
2017-09-20T03:51:38.757Z,95.27
2017-09-20T03:54:06.571Z,101.40
2017-09-20T03:56:33.575Z,105.77
2017-09-20T03:59:01.553Z,98.17
2017-09-20T04:01:28.289Z,85.63
2017-09-20T04:03:54.325Z,91.67
2017-09-20T04:06:24.945Z,99.53
2017-09-20T04:08:50.981Z,98.00
2017-09-20T04:11:16.922Z,103.77
2017-09-20T04:13:51.040Z,99.40
2017-09-20T04:16:17.775Z,105.70
2017-09-20T04:18:44.511Z,103.47
2017-09-20T04:21:14.425Z,96.53
2017-09-20T04:23:40.451Z,96.40
2017-09-20T04:26:07.418Z,88.33
2017-09-20T04:28:33.453Z,107.87
2017-09-20T04:31:00.397Z,105.17
2017-09-20T04:33:26.425Z,111.20
2017-09-20T04:35:53.382Z,95.30
2017-09-20T04:38:31.109Z,104.40
2017-09-20T04:40:57.138Z,102.70
2017-09-20T04:43:24.162Z,104.27
2017-09-20T04:45:51.918Z,94.37
2017-09-20T04:48:21.217Z,109.73
2017-09-20T04:50:47.258Z,99.43
2017-09-20T04:53:13.284Z,108.60
2017-09-20T04:55:44.343Z,94.90
2017-09-20T04:58:24.637Z,98.57
2017-09-20T05:00:59.238Z,87.87
2017-09-20T05:03:26.264Z,99.53
2017-09-20T05:05:52.321Z,100.20
2017-09-20T05:08:19.380Z,107.37
2017-09-20T05:10:47.317Z,88.07
2017-09-20T05:13:14.098Z,102.30
2017-09-20T05:15:41.152Z,97.03
2017-09-20T05:18:08.174Z,91.50
2017-09-20T05:20:35.143Z,90.60
2017-09-20T05:23:05.874Z,84.53
2017-09-20T05:25:33.626Z,100.10
2017-09-20T05:27:59.658Z,83.30
2017-09-20T05:30:27.349Z,91.30
2017-09-20T05:32:57.255Z,90.07
2017-09-20T05:35:25.013Z,88.77
2017-09-20T05:37:51.787Z,83.63
2017-09-20T05:40:18.324Z,77.07
2017-09-20T05:42:50.567Z,87.83
2017-09-20T05:45:16.589Z,82.93
2017-09-20T05:47:47.425Z,79.77
2017-09-20T05:50:14.390Z,96.60
2017-09-20T05:52:40.421Z,84.70
2017-09-20T05:55:17.127Z,95.57
2017-09-20T05:57:51.633Z,95.53
2017-09-20T06:00:18.359Z,106.80
2017-09-20T06:02:44.389Z,95.90
2017-09-20T06:05:10.421Z,90.87
2017-09-20T06:07:36.449Z,87.13
2017-09-20T06:10:04.239Z,87.90
2017-09-20T06:12:31.996Z,92.23
2017-09-20T06:15:03.489Z,92.60
2017-09-20T06:17:34.986Z,85.83
2017-09-20T06:20:03.010Z,115.07
2017-09-20T06:22:28.998Z,99.03
2017-09-20T06:25:05.610Z,91.10
2017-09-20T06:27:38.173Z,78.03
2017-09-20T06:30:09.708Z,76.10
2017-09-20T06:32:42.182Z,89.40
2017-09-20T06:35:09.968Z,86.87
2017-09-20T06:37:36.731Z,78.77
2017-09-20T06:40:04.678Z,77.77
2017-09-20T06:42:37.417Z,83.10
2017-09-20T06:45:04.343Z,85.67
2017-09-20T06:47:30.280Z,82.03
2017-09-20T06:49:56.217Z,70.50
2017-09-20T06:52:22.163Z,86.50
2017-09-20T06:54:48.085Z,103.30
2017-09-20T06:57:14.023Z,85.00
2017-09-20T06:59:39.965Z,77.33
2017-09-20T07:02:05.901Z,83.83
2017-09-20T07:04:36.026Z,77.57
2017-09-20T07:07:03.718Z,76.83
2017-09-20T07:09:29.666Z,61.77
2017-09-20T07:11:55.591Z,67.63
2017-09-20T07:14:21.527Z,66.23
2017-09-20T07:16:47.457Z,65.57
2017-09-20T07:19:13.378Z,65.87
2017-09-20T07:21:39.309Z,76.70
2017-09-20T07:24:05.242Z,59.43
2017-09-20T07:26:31.194Z,68.53
2017-09-20T07:29:00.396Z,57.90
2017-09-20T07:31:26.322Z,59.07
2017-09-20T07:33:53.253Z,62.60
2017-09-20T07:36:19.210Z,60.50
2017-09-20T07:38:45.139Z,53.30
2017-09-20T07:41:11.166Z,58.00
2017-09-20T07:43:44.402Z,71.37
2017-09-20T07:46:10.338Z,56.77
2017-09-20T07:48:36.251Z,58.77
2017-09-20T07:51:02.189Z,68.40
2017-09-20T07:53:32.470Z,72.43
2017-09-20T07:56:02.318Z,61.23
2017-09-20T07:58:28.328Z,55.60
2017-09-20T08:00:55.057Z,60.50
2017-09-20T08:03:23.037Z,56.63
2017-09-20T08:05:50.870Z,61.43
2017-09-20T08:08:17.872Z,54.20
2017-09-20T08:10:49.433Z,64.73
2017-09-20T08:13:20.257Z,57.93
2017-09-20T08:15:53.618Z,54.73
2017-09-20T08:18:19.630Z,62.10
2017-09-20T08:20:45.630Z,57.67
2017-09-20T08:23:20.092Z,54.87
2017-09-20T08:25:53.713Z,54.53
2017-09-20T08:28:19.695Z,55.03
2017-09-20T08:30:57.790Z,55.73
2017-09-20T08:33:27.280Z,59.83
2017-09-20T08:35:57.843Z,59.57
2017-09-20T08:38:37.911Z,61.27
2017-09-20T08:41:03.876Z,69.63
2017-09-20T08:43:30.858Z,58.40
2017-09-20T08:46:00.263Z,58.77
2017-09-20T08:48:32.844Z,59.60
2017-09-20T08:50:59.911Z,63.73
2017-09-20T08:53:25.862Z,65.07
2017-09-20T08:55:51.870Z,60.40
2017-09-20T08:58:22.074Z,58.37
2017-09-20T09:00:50.051Z,54.13
2017-09-20T09:03:18.025Z,60.90
2017-09-20T09:05:52.469Z,63.90
2017-09-20T09:08:19.485Z,56.87
2017-09-20T09:10:48.325Z,57.90
2017-09-20T09:13:25.075Z,53.97
2017-09-20T09:15:54.686Z,52.70
2017-09-20T09:18:26.021Z,51.60
2017-09-20T09:21:02.529Z,67.37
2017-09-20T09:23:28.529Z,56.47
2017-09-20T09:25:54.577Z,59.73
2017-09-20T09:28:22.597Z,52.67
2017-09-20T09:30:48.693Z,51.20
2017-09-20T09:33:16.750Z,42.10
2017-09-20T09:35:42.702Z,46.40
2017-09-20T09:38:08.689Z,49.77
2017-09-20T09:40:35.394Z,48.80
2017-09-20T09:43:01.357Z,46.63
2017-09-20T09:45:28.105Z,45.83
2017-09-20T09:47:58.420Z,43.03
2017-09-20T09:50:26.103Z,47.33
2017-09-20T09:52:52.068Z,43.93
2017-09-20T09:55:18.021Z,45.60
2017-09-20T09:57:44.982Z,50.10
2017-09-20T10:00:17.767Z,44.37
2017-09-20T10:02:44.489Z,44.17
2017-09-20T10:05:10.539Z,46.47
2017-09-20T10:07:37.247Z,45.53
2017-09-20T10:10:03.217Z,40.17
2017-09-20T10:12:29.904Z,48.73
2017-09-20T10:14:55.866Z,41.17
2017-09-20T10:17:21.843Z,40.07
2017-09-20T10:19:47.812Z,36.67
2017-09-20T10:22:13.780Z,35.00
2017-09-20T10:24:41.486Z,34.17
2017-09-20T10:27:07.440Z,42.10
2017-09-20T10:29:33.394Z,32.10
2017-09-20T10:31:59.394Z,32.07
2017-09-20T10:34:25.368Z,31.43
2017-09-20T10:36:52.077Z,32.20
2017-09-20T10:39:18.033Z,27.00
2017-09-20T10:41:44.754Z,40.77
2017-09-20T10:44:10.686Z,34.33
2017-09-20T10:46:36.634Z,34.60
2017-09-20T10:49:03.318Z,33.50
2017-09-20T10:51:29.254Z,36.77
2017-09-20T10:53:56.473Z,45.77
2017-09-20T10:56:22.413Z,33.40
2017-09-20T10:58:48.346Z,35.37
2017-09-20T11:01:14.368Z,32.13
2017-09-20T11:03:40.298Z,45.97
2017-09-20T11:06:09.974Z,42.33
2017-09-20T11:08:35.994Z,33.00
2017-09-20T11:11:01.939Z,27.57
2017-09-20T11:13:32.059Z,36.60
2017-09-20T11:15:58.000Z,34.93
2017-09-20T11:18:27.388Z,41.47
2017-09-20T11:20:54.367Z,41.13
2017-09-20T11:23:23.469Z,37.27
2017-09-20T11:25:50.104Z,29.70
2017-09-20T11:28:18.908Z,30.53
2017-09-20T11:30:47.014Z,29.30
2017-09-20T11:33:12.996Z,25.77
2017-09-20T11:35:46.239Z,26.97
2017-09-20T11:38:12.209Z,31.50
2017-09-20T11:40:42.756Z,32.67
2017-09-20T11:43:14.493Z,29.83
2017-09-20T11:45:44.030Z,30.17
2017-09-20T11:48:12.813Z,36.57
2017-09-20T11:50:45.001Z,25.20
2017-09-20T11:53:15.393Z,31.30
2017-09-20T11:55:42.810Z,29.50
2017-09-20T11:58:23.474Z,40.80
2017-09-20T12:00:49.446Z,32.13
2017-09-20T12:03:22.450Z,35.80
2017-09-20T12:05:49.203Z,29.27
2017-09-20T12:08:15.952Z,28.10
2017-09-20T12:10:42.663Z,33.07
2017-09-20T12:13:12.483Z,28.80
2017-09-20T12:15:38.548Z,37.03
2017-09-20T12:18:04.549Z,33.20
2017-09-20T12:20:35.185Z,28.67
2017-09-20T12:23:04.995Z,32.30
2017-09-20T12:25:34.506Z,31.37
2017-09-20T12:28:00.535Z,28.00
2017-09-20T12:30:31.433Z,31.40
2017-09-20T12:32:57.417Z,27.07
2017-09-20T12:35:25.185Z,26.07
2017-09-20T12:37:51.179Z,27.03
2017-09-20T12:40:18.153Z,27.47
2017-09-20T12:42:44.158Z,25.83
2017-09-20T12:45:14.182Z,25.67
2017-09-20T12:47:40.109Z,20.63
2017-09-20T12:50:09.230Z,17.67
2017-09-20T12:52:35.259Z,17.33
2017-09-20T12:55:03.230Z,18.47
2017-09-20T12:57:30.207Z,23.97
2017-09-20T12:59:56.921Z,33.27
2017-09-20T13:02:24.707Z,19.40
2017-09-20T13:04:51.430Z,26.30
2017-09-20T13:07:17.465Z,25.50
2017-09-20T13:09:45.374Z,22.83
2017-09-20T13:12:14.139Z,28.43
2017-09-20T13:14:44.677Z,22.10
2017-09-20T13:17:10.761Z,17.40
2017-09-20T13:19:38.754Z,20.00
2017-09-20T13:22:06.734Z,21.63
2017-09-20T13:24:33.695Z,23.63
2017-09-20T13:27:02.244Z,21.70
2017-09-20T13:29:39.092Z,21.10
2017-09-20T13:32:09.626Z,28.33
2017-09-20T13:34:36.655Z,20.90
2017-09-20T13:37:03.390Z,21.70
2017-09-20T13:39:32.066Z,21.87
2017-09-20T13:41:57.974Z,19.90
2017-09-20T13:44:25.963Z,18.57
2017-09-20T13:46:53.969Z,20.10
2017-09-20T13:49:20.901Z,22.93
2017-09-20T13:51:47.863Z,20.13
2017-09-20T13:54:13.883Z,19.43
2017-09-20T13:56:40.622Z,34.70
2017-09-20T13:59:07.570Z,20.00
2017-09-20T14:01:33.626Z,26.40
2017-09-20T14:04:02.349Z,21.90
2017-09-20T14:06:28.334Z,20.60
2017-09-20T14:08:55.327Z,20.40
2017-09-20T14:11:28.099Z,19.40
2017-09-20T14:14:08.470Z,23.33
2017-09-20T14:16:35.551Z,16.57
2017-09-20T14:19:10.333Z,19.97
2017-09-20T14:21:45.858Z,18.67
2017-09-20T14:24:11.866Z,17.07
2017-09-20T14:26:37.786Z,17.93
2017-09-20T14:29:03.710Z,20.20
2017-09-20T14:31:29.642Z,20.40
2017-09-20T14:33:56.554Z,16.33
2017-09-20T14:36:26.647Z,14.13
2017-09-20T14:38:53.314Z,15.10
2017-09-20T14:41:19.229Z,12.30
2017-09-20T14:43:45.942Z,16.93
2017-09-20T14:46:11.910Z,11.13
2017-09-20T14:48:37.906Z,12.23
2017-09-20T14:51:03.828Z,10.00
2017-09-20T14:53:29.771Z,10.00
2017-09-20T14:55:56.434Z,13.17
2017-09-20T14:58:22.382Z,14.93
2017-09-20T15:00:48.333Z,11.77
2017-09-20T15:03:14.267Z,12.00
2017-09-20T15:05:40.221Z,11.30
2017-09-20T15:08:06.136Z,13.00
2017-09-20T15:10:32.081Z,13.30
2017-09-20T15:12:58.000Z,9.10
2017-09-20T15:15:23.926Z,12.23
2017-09-20T15:17:49.861Z,8.40
2017-09-20T15:20:15.793Z,10.40
2017-09-20T15:22:41.741Z,9.43
2017-09-20T15:25:07.665Z,10.67
2017-09-20T15:27:33.590Z,9.13
2017-09-20T15:29:59.549Z,8.23
2017-09-20T15:32:25.458Z,6.37
2017-09-20T15:34:52.473Z,7.23
2017-09-20T15:37:18.497Z,9.33
2017-09-20T15:39:49.129Z,9.00
2017-09-20T15:42:15.050Z,8.47
2017-09-20T15:44:40.987Z,7.67
2017-09-20T15:47:06.998Z,8.70
2017-09-20T15:49:33.979Z,9.47
2017-09-20T15:52:11.154Z,7.90
2017-09-20T15:54:39.806Z,8.17
2017-09-20T15:57:05.755Z,9.50
2017-09-20T15:59:31.682Z,26.03
2017-09-20T16:01:57.600Z,10.43
2017-09-20T16:04:23.534Z,10.00
2017-09-20T16:06:49.469Z,9.07
2017-09-20T16:09:19.071Z,9.00
2017-09-20T16:11:48.566Z,9.17
2017-09-20T16:14:14.485Z,13.20
2017-09-20T16:16:40.394Z,9.20
2017-09-20T16:19:06.338Z,16.90
2017-09-20T16:21:32.289Z,8.57
2017-09-20T16:23:58.205Z,9.93
2017-09-20T16:26:24.137Z,8.53
2017-09-20T16:28:50.068Z,12.37
2017-09-20T16:31:17.014Z,11.17
2017-09-20T16:33:46.035Z,12.70
2017-09-20T16:36:11.945Z,10.93
2017-09-20T16:38:38.617Z,14.07
2017-09-20T16:41:05.270Z,14.20
2017-09-20T16:43:31.957Z,13.83
2017-09-20T16:45:57.899Z,32.73
2017-09-20T16:48:23.838Z,12.90
2017-09-20T16:50:53.981Z,13.30
2017-09-20T16:53:20.638Z,11.60
2017-09-20T16:55:47.289Z,13.23
2017-09-20T16:58:13.961Z,13.00
2017-09-20T17:00:39.904Z,13.00
2017-09-20T17:03:05.793Z,12.50
2017-09-20T17:05:31.741Z,12.40
2017-09-20T17:08:02.517Z,17.33
2017-09-20T17:10:32.036Z,19.00
2017-09-20T17:12:57.961Z,14.97
2017-09-20T17:15:23.886Z,13.97
2017-09-20T17:17:52.349Z,16.60
2017-09-20T17:20:18.327Z,17.27
2017-09-20T17:22:45.005Z,18.23
2017-09-20T17:25:10.922Z,19.67
2017-09-20T17:27:36.824Z,20.77
2017-09-20T17:30:04.471Z,20.27
2017-09-20T17:32:30.381Z,20.10
2017-09-20T17:34:56.353Z,19.40
2017-09-20T17:37:22.263Z,22.80
2017-09-20T17:39:48.917Z,25.33
2017-09-20T17:42:14.842Z,26.97
2017-09-20T17:44:52.338Z,21.13
2017-09-20T17:47:18.314Z,27.33
2017-09-20T17:49:44.241Z,37.27
2017-09-20T17:52:10.151Z,33.27
2017-09-20T17:54:36.068Z,32.03
2017-09-20T17:57:04.113Z,35.47
2017-09-20T17:59:33.071Z,37.80
2017-09-20T18:02:02.947Z,35.73
2017-09-20T18:04:29.942Z,35.30
2017-09-20T18:07:04.745Z,34.07
2017-09-20T18:09:34.162Z,33.03
2017-09-20T18:12:02.094Z,40.13
2017-09-20T18:14:33.557Z,35.20
2017-09-20T18:17:01.622Z,34.83
2017-09-20T18:19:29.047Z,37.53
2017-09-20T18:22:03.270Z,34.73
2017-09-20T18:24:29.299Z,30.57
2017-09-20T18:26:55.386Z,34.33
2017-09-20T18:29:21.367Z,46.60
2017-09-20T18:31:55.886Z,33.57
2017-09-20T18:34:28.286Z,39.63
2017-09-20T18:36:54.214Z,35.43
2017-09-20T18:39:28.032Z,38.33
2017-09-20T18:41:57.805Z,34.27
2017-09-20T18:44:30.317Z,33.97
2017-09-20T18:46:59.696Z,31.37
2017-09-20T18:49:28.394Z,36.40
2017-09-20T18:55:08.510Z,34.10
2017-09-20T18:57:35.503Z,43.43
2017-09-20T19:00:04.795Z,35.40
2017-09-20T19:02:30.751Z,32.50
2017-09-20T19:04:56.657Z,43.87
2017-09-20T19:07:22.606Z,35.80
2017-09-20T19:09:48.526Z,37.77
2017-09-20T19:12:15.210Z,35.87
2017-09-20T19:14:42.179Z,34.83
2017-09-20T19:17:08.118Z,35.17
2017-09-20T19:19:35.078Z,31.60
2017-09-20T19:22:07.502Z,34.70
2017-09-20T19:24:40.964Z,41.10
2017-09-20T19:27:13.607Z,40.80
2017-09-20T19:29:39.563Z,45.80
2017-09-20T19:32:22.576Z,40.40
2017-09-20T19:34:52.190Z,37.50
2017-09-20T19:37:18.862Z,32.03
2017-09-20T19:39:48.129Z,39.83
2017-09-20T19:42:14.150Z,36.37
2017-09-20T19:44:40.070Z,35.83
2017-09-20T19:47:06.194Z,37.93
2017-09-20T19:49:35.937Z,32.93
2017-09-20T19:52:11.145Z,38.30
2017-09-20T19:54:37.098Z,32.67
2017-09-20T19:57:03.018Z,42.33
2017-09-20T19:59:29.706Z,38.90
2017-09-20T20:01:56.917Z,43.53
2017-09-20T20:04:22.853Z,33.70
2017-09-20T20:06:48.846Z,38.20
2017-09-20T20:09:14.905Z,38.97
2017-09-20T20:11:40.882Z,30.70
2017-09-20T20:14:18.786Z,31.30
2017-09-20T20:16:58.821Z,33.53
2017-09-20T20:19:32.833Z,33.07
2017-09-20T20:22:05.498Z,39.63
2017-09-20T20:24:34.173Z,42.27
2017-09-20T20:27:00.097Z,44.17
2017-09-20T20:29:26.150Z,41.40
2017-09-20T20:31:52.837Z,35.50
2017-09-20T20:34:19.833Z,37.73
2017-09-20T20:36:46.586Z,42.60
2017-09-20T20:39:14.358Z,39.50
2017-09-20T20:41:41.029Z,47.93
2017-09-20T20:44:27.758Z,41.40
2017-09-20T20:46:58.454Z,37.47
2017-09-20T20:49:27.957Z,42.17
2017-09-20T20:51:58.473Z,46.23
2017-09-20T20:54:27.157Z,36.40
2017-09-20T20:56:53.125Z,44.07
2017-09-20T20:59:21.158Z,42.77
2017-09-20T21:01:49.122Z,45.00
2017-09-20T21:04:15.186Z,37.13
2017-09-20T21:06:42.627Z,38.57
2017-09-20T21:09:09.371Z,46.30
2017-09-20T21:11:36.116Z,38.00
2017-09-20T21:14:02.138Z,38.43
2017-09-20T21:16:30.147Z,40.37
2017-09-20T21:18:56.154Z,37.20
2017-09-20T21:21:22.168Z,36.17
2017-09-20T21:23:48.201Z,36.07
2017-09-20T21:26:14.121Z,34.57
2017-09-20T21:28:40.155Z,35.87
2017-09-20T21:31:10.068Z,45.37
2017-09-20T21:33:36.117Z,46.13
2017-09-20T21:36:08.476Z,41.27
2017-09-20T21:38:34.542Z,42.27
2017-09-20T21:41:01.582Z,31.10
2017-09-20T21:43:31.591Z,32.73
2017-09-20T21:45:57.606Z,31.30
2017-09-20T21:48:26.634Z,35.53
2017-09-20T21:50:53.352Z,33.97
2017-09-20T21:53:21.122Z,34.33
2017-09-20T21:55:47.159Z,43.80
2017-09-20T21:58:17.277Z,44.13
2017-09-20T22:00:43.314Z,32.57
2017-09-20T22:03:10.039Z,39.33
2017-09-20T22:05:40.069Z,42.33
2017-09-20T22:08:07.063Z,39.17
2017-09-20T22:10:36.231Z,44.97
2017-09-20T22:13:04.211Z,40.53
2017-09-20T22:15:47.991Z,52.93
2017-09-20T22:18:27.385Z,43.80
2017-09-20T22:21:07.611Z,50.27
2017-09-20T22:23:46.193Z,45.90
2017-09-20T22:26:24.579Z,45.73
2017-09-20T22:28:51.641Z,46.67
2017-09-20T22:31:18.666Z,45.83
2017-09-20T22:33:47.368Z,48.77
2017-09-20T22:36:15.196Z,47.40
2017-09-20T22:38:42.157Z,43.03
2017-09-20T22:41:08.196Z,41.07
2017-09-20T22:43:37.506Z,41.77
2017-09-20T22:46:05.490Z,46.00
2017-09-20T22:48:33.284Z,49.53
2017-09-20T22:51:01.221Z,53.90
2017-09-20T22:53:27.266Z,52.20
2017-09-20T22:55:53.962Z,49.00
2017-09-20T22:58:24.929Z,56.40
2017-09-20T23:00:50.937Z,43.37
2017-09-20T23:03:24.274Z,51.03
2017-09-20T23:05:56.621Z,40.13
2017-09-20T23:08:22.702Z,43.87
2017-09-20T23:10:48.686Z,47.20
2017-09-20T23:13:14.781Z,49.50
2017-09-20T23:15:42.786Z,53.23
2017-09-20T23:18:08.839Z,48.10
2017-09-20T23:20:35.566Z,46.17
2017-09-20T23:23:01.630Z,56.80
2017-09-20T23:25:27.582Z,51.80
2017-09-20T23:27:53.569Z,48.57
2017-09-20T23:30:22.253Z,49.80
2017-09-20T23:32:50.212Z,66.77
2017-09-20T23:35:17.237Z,56.27
2017-09-20T23:37:45.252Z,60.37
2017-09-20T23:40:12.201Z,53.80
2017-09-20T23:42:38.149Z,63.67
2017-09-20T23:45:04.895Z,55.77
2017-09-20T23:47:35.106Z,55.63
2017-09-20T23:50:05.658Z,51.03
2017-09-20T23:52:31.650Z,69.43
2017-09-20T23:54:57.577Z,46.43
2017-09-20T23:57:23.602Z,57.87
2017-09-20T23:59:54.150Z,54.27
